Timber Lake, Colorado
Current Conditions -  °F | °C
As of 9:53 AM on Sunday 23 Nov 2014 (Local Time) from KLHX Reporting Station
Broken Clouds Broken Clouds  
Wind Chill: 34°   Ceiling: 11000
Heat Index: 43°   Visibility: 10mi
Dew Point: 17°   Wind: 23mph
Humidity: 35%   Direction: 10°N
Pressure: 29.78"   Gusts: 28mph
Location:  37.8368°N, 103.544°W
Report Text: KLHX 231653Z AUTO 01020G24KT 10SM BKN110 06/M08 A2978 RMK AO2 SLP066 T00611083 $
Loading
Personal Weather Stations






























Interactive Weather Map New forecast layout! Learn more

10-Day Weather Forecast

Advertisements
Track Severe Weather on mobile